Weather at Fergus (Vodarek Field)

Public forecast

Using degrees Celsius for public forecast. Weather courtesy of forecast.io.

Closest aviation weather report (METAR) to Fergus (Vodarek Field)

Closest report is Waterloo Airport, 16.2 nm (30.1 km) SSW. Retrieved 2021/09/18 20:00 UTC (25 seconds ago):

CYKF 182000Z AUTO 31007KT 290V030 9SM CLR 23/09 A3017 RMK SLP213 DENSITY ALT 2000FT

Closest aviation forecast (TAF) to Fergus (Vodarek Field)

Closest forecast is Waterloo Airport, 16.2 nm (30.1 km) SSW. Retrieved 2021/09/18 20:42 UTC (0 seconds ago):

TAF CYKF 181938Z 1820/1908 35008KT P6SM SKC FM190600 03005KT P6SM SKC PROB30 1906/1908 2SM BR RMK FCST BASED ON AUTO OBS NXT FCST BY 190200Z